sensor_id;sensor_type;location;lat;lon;timestamp;P1;durP1;ratioP1;P2;durP2;ratioP2
11642;SDS011;5877;50.930;6.918;2023-05-07T00:02:28;3.70;;;3.00;;
11642;SDS011;5877;50.930;6.918;2023-05-07T00:07:21;2.97;;;2.60;;
11642;SDS011;5877;50.930;6.918;2023-05-07T00:12:14;3.10;;;2.45;;
11642;SDS011;5877;50.930;6.918;2023-05-07T00:17:07;4.43;;;2.97;;
11642;SDS011;5877;50.930;6.918;2023-05-07T00:22:03;4.83;;;2.80;;
11642;SDS011;5877;50.930;6.918;2023-05-07T00:26:55;4.13;;;3.00;;
11642;SDS011;5877;50.930;6.918;2023-05-07T00:31:50;3.77;;;3.03;;
11642;SDS011;5877;50.930;6.918;2023-05-07T00:36:44;3.80;;;3.40;;
11642;SDS011;5877;50.930;6.918;2023-05-07T00:41:36;3.83;;;3.17;;
11642;SDS011;5877;50.930;6.918;2023-05-07T01:05:31;3.42;;;2.90;;
11642;SDS011;5877;50.930;6.918;2023-05-07T01:10:24;2.77;;;2.43;;
11642;SDS011;5877;50.930;6.918;2023-05-07T01:15:18;4.03;;;2.67;;
11642;SDS011;5877;50.930;6.918;2023-05-07T01:20:17;3.00;;;2.70;;
11642;SDS011;5877;50.930;6.918;2023-05-07T01:25:13;4.93;;;2.90;;
11642;SDS011;5877;50.930;6.918;2023-05-07T01:30:15;3.25;;;2.60;;
11642;SDS011;5877;50.930;6.918;2023-05-07T01:35:11;4.80;;;2.70;;
11642;SDS011;5877;50.930;6.918;2023-05-07T01:40:07;3.47;;;2.50;;
11642;SDS011;5877;50.930;6.918;2023-05-07T01:45:04;2.67;;;2.10;;
11642;SDS011;5877;50.930;6.918;2023-05-07T01:49:57;3.72;;;2.50;;
11642;SDS011;5877;50.930;6.918;2023-05-07T01:54:50;3.00;;;2.60;;
11642;SDS011;5877;50.930;6.918;2023-05-07T01:59:43;3.43;;;2.60;;
11642;SDS011;5877;50.930;6.918;2023-05-07T02:04:35;4.55;;;2.60;;
11642;SDS011;5877;50.930;6.918;2023-05-07T02:09:29;5.15;;;2.78;;
11642;SDS011;5877;50.930;6.918;2023-05-07T02:14:23;3.05;;;2.60;;
11642;SDS011;5877;50.930;6.918;2023-05-07T02:19:15;3.70;;;2.50;;
11642;SDS011;5877;50.930;6.918;2023-05-07T02:24:09;4.25;;;2.53;;
11642;SDS011;5877;50.930;6.918;2023-05-07T02:29:01;3.47;;;2.65;;
11642;SDS011;5877;50.930;6.918;2023-05-07T02:34:05;2.92;;;2.67;;
11642;SDS011;5877;50.930;6.918;2023-05-07T02:38:59;3.38;;;2.75;;
11642;SDS011;5877;50.930;6.918;2023-05-07T02:43:52;3.13;;;2.83;;
11642;SDS011;5877;50.930;6.918;2023-05-07T02:48:45;3.10;;;2.78;;
11642;SDS011;5877;50.930;6.918;2023-05-07T02:53:37;3.30;;;2.60;;
11642;SDS011;5877;50.930;6.918;2023-05-07T02:58:30;3.27;;;2.77;;
11642;SDS011;5877;50.930;6.918;2023-05-07T03:03:25;3.10;;;2.60;;
11642;SDS011;5877;50.930;6.918;2023-05-07T03:08:17;3.23;;;2.90;;
11642;SDS011;5877;50.930;6.918;2023-05-07T03:13:09;3.03;;;2.73;;
11642;SDS011;5877;50.930;6.918;2023-05-07T03:18:02;3.17;;;2.40;;
11642;SDS011;5877;50.930;6.918;2023-05-07T03:22:56;3.30;;;2.73;;
11642;SDS011;5877;50.930;6.918;2023-05-07T03:27:50;3.28;;;2.78;;
11642;SDS011;5877;50.930;6.918;2023-05-07T03:32:46;2.72;;;2.50;;
11642;SDS011;5877;50.930;6.918;2023-05-07T03:37:38;3.67;;;2.80;;
11642;SDS011;5877;50.930;6.918;2023-05-07T03:42:33;3.42;;;2.50;;
11642;SDS011;5877;50.930;6.918;2023-05-07T03:47:25;4.97;;;2.70;;
11642;SDS011;5877;50.930;6.918;2023-05-07T03:52:19;3.53;;;2.33;;
11642;SDS011;5877;50.930;6.918;2023-05-07T03:57:15;3.35;;;2.40;;
11642;SDS011;5877;50.930;6.918;2023-05-07T04:02:14;3.38;;;2.40;;
11642;SDS011;5877;50.930;6.918;2023-05-07T04:07:07;3.70;;;2.53;;
11642;SDS011;5877;50.930;6.918;2023-05-07T04:12:04;3.90;;;2.47;;
11642;SDS011;5877;50.930;6.918;2023-05-07T04:16:59;3.65;;;2.17;;
11642;SDS011;5877;50.930;6.918;2023-05-07T04:21:53;3.17;;;2.20;;
11642;SDS011;5877;50.930;6.918;2023-05-07T04:26:46;3.08;;;2.25;;
11642;SDS011;5877;50.930;6.918;2023-05-07T04:31:39;3.40;;;2.20;;
11642;SDS011;5877;50.930;6.918;2023-05-07T04:36:33;2.75;;;2.30;;
11642;SDS011;5877;50.930;6.918;2023-05-07T04:41:35;3.90;;;2.20;;
11642;SDS011;5877;50.930;6.918;2023-05-07T04:46:31;2.58;;;2.10;;
11642;SDS011;5877;50.930;6.918;2023-05-07T04:51:23;3.03;;;2.40;;
11642;SDS011;5877;50.930;6.918;2023-05-07T04:56:16;2.63;;;2.40;;
11642;SDS011;5877;50.930;6.918;2023-05-07T05:01:11;2.60;;;2.17;;
11642;SDS011;5877;50.930;6.918;2023-05-07T05:06:05;5.28;;;1.98;;
11642;SDS011;5877;50.930;6.918;2023-05-07T05:10:58;2.72;;;2.00;;
11642;SDS011;5877;50.930;6.918;2023-05-07T05:15:55;3.88;;;1.90;;
11642;SDS011;5877;50.930;6.918;2023-05-07T05:20:51;2.75;;;1.88;;
11642;SDS011;5877;50.930;6.918;2023-05-07T05:25:45;2.30;;;1.80;;
11642;SDS011;5877;50.930;6.918;2023-05-07T05:30:38;2.22;;;1.85;;
11642;SDS011;5877;50.930;6.918;2023-05-07T05:35:32;2.73;;;1.80;;
11642;SDS011;5877;50.930;6.918;2023-05-07T05:40:29;3.03;;;1.80;;
11642;SDS011;5877;50.930;6.918;2023-05-07T05:45:22;1.90;;;1.70;;
11642;SDS011;5877;50.930;6.918;2023-05-07T05:50:15;2.67;;;1.75;;
11642;SDS011;5877;50.930;6.918;2023-05-07T05:55:12;4.60;;;1.70;;
11642;SDS011;5877;50.930;6.918;2023-05-07T06:00:05;1.70;;;1.57;;
11642;SDS011;5877;50.930;6.918;2023-05-07T06:05:09;2.40;;;1.50;;
11642;SDS011;5877;50.930;6.918;2023-05-07T06:10:01;2.58;;;1.58;;
11642;SDS011;5877;50.930;6.918;2023-05-07T06:14:56;2.20;;;1.30;;
11642;SDS011;5877;50.930;6.918;2023-05-07T06:19:49;2.25;;;1.58;;
11642;SDS011;5877;50.930;6.918;2023-05-07T06:24:44;2.95;;;1.60;;
11642;SDS011;5877;50.930;6.918;2023-05-07T06:29:37;2.40;;;1.60;;
11642;SDS011;5877;50.930;6.918;2023-05-07T06:34:37;2.40;;;1.58;;
11642;SDS011;5877;50.930;6.918;2023-05-07T06:39:31;2.50;;;1.45;;
11642;SDS011;5877;50.930;6.918;2023-05-07T06:44:25;3.70;;;1.70;;
11642;SDS011;5877;50.930;6.918;2023-05-07T06:49:32;2.33;;;1.70;;
11642;SDS011;5877;50.930;6.918;2023-05-07T06:54:26;2.50;;;1.48;;
11642;SDS011;5877;50.930;6.918;2023-05-07T06:59:18;2.85;;;1.70;;
11642;SDS011;5877;50.930;6.918;2023-05-07T07:04:12;2.85;;;1.50;;
11642;SDS011;5877;50.930;6.918;2023-05-07T07:09:07;2.20;;;1.50;;
11642;SDS011;5877;50.930;6.918;2023-05-07T07:14:00;2.10;;;1.60;;
11642;SDS011;5877;50.930;6.918;2023-05-07T07:18:54;2.25;;;1.70;;
11642;SDS011;5877;50.930;6.918;2023-05-07T07:23:47;1.45;;;1.30;;
11642;SDS011;5877;50.930;6.918;2023-05-07T07:28:42;2.47;;;1.60;;
11642;SDS011;5877;50.930;6.918;2023-05-07T07:33:39;2.78;;;1.58;;
11642;SDS011;5877;50.930;6.918;2023-05-07T07:38:32;3.00;;;1.40;;
11642;SDS011;5877;50.930;6.918;2023-05-07T07:43:24;2.13;;;1.60;;
11642;SDS011;5877;50.930;6.918;2023-05-07T07:48:17;2.55;;;1.52;;
11642;SDS011;5877;50.930;6.918;2023-05-07T07:53:11;2.25;;;1.38;;
11642;SDS011;5877;50.930;6.918;2023-05-07T07:58:04;2.30;;;1.40;;
11642;SDS011;5877;50.930;6.918;2023-05-07T08:02:57;2.55;;;1.60;;
11642;SDS011;5877;50.930;6.918;2023-05-07T08:07:56;2.50;;;1.30;;
11642;SDS011;5877;50.930;6.918;2023-05-07T08:12:54;2.97;;;1.30;;
11642;SDS011;5877;50.930;6.918;2023-05-07T08:17:47;2.63;;;1.60;;
11642;SDS011;5877;50.930;6.918;2023-05-07T08:22:41;2.77;;;1.70;;
11642;SDS011;5877;50.930;6.918;2023-05-07T08:27:33;1.85;;;1.63;;
11642;SDS011;5877;50.930;6.918;2023-05-07T08:32:26;2.67;;;1.55;;
11642;SDS011;5877;50.930;6.918;2023-05-07T08:37:20;1.83;;;1.40;;
11642;SDS011;5877;50.930;6.918;2023-05-07T08:42:14;2.55;;;1.55;;
11642;SDS011;5877;50.930;6.918;2023-05-07T08:47:10;2.08;;;1.55;;
11642;SDS011;5877;50.930;6.918;2023-05-07T08:52:04;2.20;;;1.30;;
11642;SDS011;5877;50.930;6.918;2023-05-07T08:57:01;2.40;;;1.47;;
11642;SDS011;5877;50.930;6.918;2023-05-07T09:01:56;2.27;;;1.60;;
11642;SDS011;5877;50.930;6.918;2023-05-07T09:06:50;1.98;;;1.55;;
11642;SDS011;5877;50.930;6.918;2023-05-07T09:11:46;3.17;;;1.43;;
11642;SDS011;5877;50.930;6.918;2023-05-07T09:16:42;3.05;;;1.63;;
11642;SDS011;5877;50.930;6.918;2023-05-07T09:21:36;2.97;;;1.27;;
11642;SDS011;5877;50.930;6.918;2023-05-07T09:26:32;1.90;;;1.38;;
11642;SDS011;5877;50.930;6.918;2023-05-07T09:31:28;3.70;;;1.30;;
11642;SDS011;5877;50.930;6.918;2023-05-07T09:36:21;2.08;;;1.42;;
11642;SDS011;5877;50.930;6.918;2023-05-07T09:41:14;3.10;;;1.50;;
11642;SDS011;5877;50.930;6.918;2023-05-07T09:46:31;1.63;;;1.30;;
11642;SDS011;5877;50.930;6.918;2023-05-07T09:51:45;2.57;;;1.50;;
11642;SDS011;5877;50.930;6.918;2023-05-07T09:56:48;1.90;;;1.30;;
11642;SDS011;5877;50.930;6.918;2023-05-07T10:01:43;2.47;;;1.60;;
11642;SDS011;5877;50.930;6.918;2023-05-07T10:06:38;2.03;;;1.30;;
11642;SDS011;5877;50.930;6.918;2023-05-07T10:11:34;1.63;;;1.30;;
11642;SDS011;5877;50.930;6.918;2023-05-07T10:16:34;2.50;;;1.40;;
11642;SDS011;5877;50.930;6.918;2023-05-07T10:21:35;1.55;;;1.27;;
11642;SDS011;5877;50.930;6.918;2023-05-07T10:26:56;2.90;;;1.40;;
11642;SDS011;5877;50.930;6.918;2023-05-07T10:32:07;2.73;;;1.47;;
11642;SDS011;5877;50.930;6.918;2023-05-07T10:37:20;1.77;;;1.40;;
11642;SDS011;5877;50.930;6.918;2023-05-07T10:42:14;2.10;;;1.30;;
11642;SDS011;5877;50.930;6.918;2023-05-07T10:47:14;2.97;;;1.30;;
11642;SDS011;5877;50.930;6.918;2023-05-07T10:52:14;1.70;;;1.30;;
11642;SDS011;5877;50.930;6.918;2023-05-07T10:57:37;2.50;;;1.38;;
11642;SDS011;5877;50.930;6.918;2023-05-07T11:08:23;2.20;;;1.10;;
11642;SDS011;5877;50.930;6.918;2023-05-07T11:19:01;2.25;;;1.30;;
11642;SDS011;5877;50.930;6.918;2023-05-07T11:24:01;2.53;;;1.23;;
11642;SDS011;5877;50.930;6.918;2023-05-07T11:29:02;2.80;;;1.60;;
11642;SDS011;5877;50.930;6.918;2023-05-07T11:34:23;2.13;;;1.37;;
11642;SDS011;5877;50.930;6.918;2023-05-07T11:39:23;1.13;;;1.00;;
11642;SDS011;5877;50.930;6.918;2023-05-07T11:44:18;2.97;;;1.40;;
11642;SDS011;5877;50.930;6.918;2023-05-07T11:49:10;2.40;;;1.37;;
11642;SDS011;5877;50.930;6.918;2023-05-07T11:54:03;2.45;;;1.20;;
11642;SDS011;5877;50.930;6.918;2023-05-07T11:59:01;1.95;;;1.30;;
11642;SDS011;5877;50.930;6.918;2023-05-07T12:04:05;1.90;;;1.30;;
11642;SDS011;5877;50.930;6.918;2023-05-07T12:08:57;2.28;;;1.30;;
11642;SDS011;5877;50.930;6.918;2023-05-07T12:13:50;1.60;;;1.20;;
11642;SDS011;5877;50.930;6.918;2023-05-07T12:18:43;2.22;;;1.17;;
11642;SDS011;5877;50.930;6.918;2023-05-07T12:23:37;2.42;;;1.15;;
11642;SDS011;5877;50.930;6.918;2023-05-07T12:28:35;1.60;;;1.20;;
11642;SDS011;5877;50.930;6.918;2023-05-07T12:33:32;2.27;;;1.23;;
11642;SDS011;5877;50.930;6.918;2023-05-07T12:38:25;1.90;;;1.10;;
11642;SDS011;5877;50.930;6.918;2023-05-07T12:43:21;2.30;;;1.40;;
11642;SDS011;5877;50.930;6.918;2023-05-07T12:48:17;1.70;;;1.40;;
11642;SDS011;5877;50.930;6.918;2023-05-07T12:53:12;2.80;;;1.60;;
11642;SDS011;5877;50.930;6.918;2023-05-07T12:58:05;2.30;;;1.50;;
11642;SDS011;5877;50.930;6.918;2023-05-07T13:02:58;3.38;;;1.60;;
11642;SDS011;5877;50.930;6.918;2023-05-07T13:07:57;2.20;;;1.80;;
11642;SDS011;5877;50.930;6.918;2023-05-07T13:12:53;2.92;;;2.33;;
11642;SDS011;5877;50.930;6.918;2023-05-07T13:17:46;5.17;;;3.57;;
11642;SDS011;5877;50.930;6.918;2023-05-07T13:22:39;2.88;;;1.80;;
11642;SDS011;5877;50.930;6.918;2023-05-07T13:27:32;2.70;;;2.07;;
11642;SDS011;5877;50.930;6.918;2023-05-07T13:32:27;3.10;;;1.60;;
11642;SDS011;5877;50.930;6.918;2023-05-07T13:37:19;3.53;;;1.95;;
11642;SDS011;5877;50.930;6.918;2023-05-07T13:42:12;2.40;;;1.87;;
11642;SDS011;5877;50.930;6.918;2023-05-07T13:47:06;2.95;;;1.85;;
11642;SDS011;5877;50.930;6.918;2023-05-07T13:52:00;3.73;;;1.60;;
11642;SDS011;5877;50.930;6.918;2023-05-07T13:56:52;2.55;;;1.60;;
11642;SDS011;5877;50.930;6.918;2023-05-07T14:01:45;1.98;;;1.50;;
11642;SDS011;5877;50.930;6.918;2023-05-07T14:06:39;2.10;;;1.67;;
11642;SDS011;5877;50.930;6.918;2023-05-07T14:11:32;1.90;;;1.70;;
11642;SDS011;5877;50.930;6.918;2023-05-07T14:16:26;2.73;;;1.70;;
11642;SDS011;5877;50.930;6.918;2023-05-07T14:21:18;3.25;;;1.85;;
11642;SDS011;5877;50.930;6.918;2023-05-07T14:26:11;3.53;;;1.60;;
11642;SDS011;5877;50.930;6.918;2023-05-07T14:31:05;3.95;;;1.95;;
11642;SDS011;5877;50.930;6.918;2023-05-07T14:35:58;2.75;;;2.00;;
11642;SDS011;5877;50.930;6.918;2023-05-07T14:40:50;3.75;;;2.00;;
11642;SDS011;5877;50.930;6.918;2023-05-07T14:45:45;5.00;;;2.67;;
11642;SDS011;5877;50.930;6.918;2023-05-07T14:50:38;2.10;;;1.80;;
11642;SDS011;5877;50.930;6.918;2023-05-07T14:55:31;3.58;;;1.70;;
11642;SDS011;5877;50.930;6.918;2023-05-07T15:00:36;3.50;;;2.00;;
11642;SDS011;5877;50.930;6.918;2023-05-07T15:05:28;3.30;;;2.50;;
11642;SDS011;5877;50.930;6.918;2023-05-07T15:10:21;2.50;;;2.10;;
11642;SDS011;5877;50.930;6.918;2023-05-07T15:15:13;4.55;;;2.20;;
11642;SDS011;5877;50.930;6.918;2023-05-07T15:20:06;2.50;;;1.90;;
11642;SDS011;5877;50.930;6.918;2023-05-07T15:24:59;5.03;;;2.30;;
11642;SDS011;5877;50.930;6.918;2023-05-07T15:29:51;4.60;;;2.28;;
11642;SDS011;5877;50.930;6.918;2023-05-07T15:34:45;2.20;;;1.55;;
11642;SDS011;5877;50.930;6.918;2023-05-07T15:39:40;3.47;;;2.27;;
11642;SDS011;5877;50.930;6.918;2023-05-07T15:44:33;2.50;;;1.70;;
11642;SDS011;5877;50.930;6.918;2023-05-07T15:49:26;2.83;;;2.40;;
11642;SDS011;5877;50.930;6.918;2023-05-07T15:54:20;4.35;;;2.78;;
11642;SDS011;5877;50.930;6.918;2023-05-07T15:59:12;4.37;;;3.03;;
11642;SDS011;5877;50.930;6.918;2023-05-07T16:04:08;2.92;;;2.30;;
11642;SDS011;5877;50.930;6.918;2023-05-07T16:09:01;4.43;;;2.10;;
11642;SDS011;5877;50.930;6.918;2023-05-07T16:13:54;2.33;;;2.00;;
11642;SDS011;5877;50.930;6.918;2023-05-07T16:18:48;3.33;;;2.25;;
11642;SDS011;5877;50.930;6.918;2023-05-07T16:23:40;5.60;;;2.87;;
11642;SDS011;5877;50.930;6.918;2023-05-07T16:28:32;2.53;;;1.77;;
11642;SDS011;5877;50.930;6.918;2023-05-07T16:33:25;2.20;;;2.00;;
11642;SDS011;5877;50.930;6.918;2023-05-07T16:38:17;3.10;;;2.40;;
11642;SDS011;5877;50.930;6.918;2023-05-07T16:43:09;2.90;;;2.33;;
11642;SDS011;5877;50.930;6.918;2023-05-07T16:48:02;2.42;;;2.20;;
11642;SDS011;5877;50.930;6.918;2023-05-07T16:52:55;2.60;;;1.90;;
11642;SDS011;5877;50.930;6.918;2023-05-07T16:57:49;2.83;;;2.10;;
11642;SDS011;5877;50.930;6.918;2023-05-07T17:02:45;2.58;;;1.52;;
11642;SDS011;5877;50.930;6.918;2023-05-07T17:07:38;1.70;;;1.60;;
11642;SDS011;5877;50.930;6.918;2023-05-07T17:12:30;1.85;;;1.60;;
11642;SDS011;5877;50.930;6.918;2023-05-07T17:17:23;3.13;;;2.05;;
11642;SDS011;5877;50.930;6.918;2023-05-07T17:22:16;1.95;;;1.42;;
11642;SDS011;5877;50.930;6.918;2023-05-07T17:27:08;2.38;;;1.60;;
11642;SDS011;5877;50.930;6.918;2023-05-07T17:32:01;2.00;;;1.50;;
11642;SDS011;5877;50.930;6.918;2023-05-07T17:36:53;3.45;;;1.90;;
11642;SDS011;5877;50.930;6.918;2023-05-07T17:41:46;2.00;;;1.63;;
11642;SDS011;5877;50.930;6.918;2023-05-07T17:46:39;2.30;;;1.90;;
11642;SDS011;5877;50.930;6.918;2023-05-07T17:51:32;2.95;;;1.90;;
11642;SDS011;5877;50.930;6.918;2023-05-07T17:56:44;3.33;;;2.20;;
11642;SDS011;5877;50.930;6.918;2023-05-07T18:01:37;3.70;;;2.00;;
11642;SDS011;5877;50.930;6.918;2023-05-07T18:06:29;3.92;;;2.15;;
11642;SDS011;5877;50.930;6.918;2023-05-07T18:11:22;3.37;;;2.00;;
11642;SDS011;5877;50.930;6.918;2023-05-07T18:16:15;3.80;;;2.40;;
11642;SDS011;5877;50.930;6.918;2023-05-07T18:21:11;3.53;;;2.40;;
11642;SDS011;5877;50.930;6.918;2023-05-07T18:26:09;4.90;;;2.80;;
11642;SDS011;5877;50.930;6.918;2023-05-07T18:31:01;3.42;;;2.70;;
11642;SDS011;5877;50.930;6.918;2023-05-07T18:35:55;4.38;;;2.60;;
11642;SDS011;5877;50.930;6.918;2023-05-07T18:40:48;5.45;;;3.30;;
11642;SDS011;5877;50.930;6.918;2023-05-07T18:45:42;4.00;;;3.08;;
11642;SDS011;5877;50.930;6.918;2023-05-07T18:50:40;5.00;;;3.10;;
11642;SDS011;5877;50.930;6.918;2023-05-07T18:55:36;4.40;;;3.10;;
11642;SDS011;5877;50.930;6.918;2023-05-07T19:00:28;4.27;;;2.90;;
11642;SDS011;5877;50.930;6.918;2023-05-07T19:05:20;4.10;;;3.33;;
11642;SDS011;5877;50.930;6.918;2023-05-07T20:06:18;5.40;;;3.90;;
11642;SDS011;5877;50.930;6.918;2023-05-07T21:11:40;6.77;;;5.83;;
11642;SDS011;5877;50.930;6.918;2023-05-07T21:29:58;8.57;;;5.60;;
11642;SDS011;5877;50.930;6.918;2023-05-07T21:34:57;6.65;;;5.70;;
11642;SDS011;5877;50.930;6.918;2023-05-07T21:39:56;7.13;;;5.53;;
11642;SDS011;5877;50.930;6.918;2023-05-07T21:44:50;5.20;;;4.70;;
11642;SDS011;5877;50.930;6.918;2023-05-07T21:49:42;4.65;;;4.00;;
11642;SDS011;5877;50.930;6.918;2023-05-07T21:54:35;5.03;;;4.17;;
11642;SDS011;5877;50.930;6.918;2023-05-07T21:59:27;4.43;;;3.93;;
11642;SDS011;5877;50.930;6.918;2023-05-07T22:04:19;5.00;;;4.10;;
11642;SDS011;5877;50.930;6.918;2023-05-07T22:09:11;4.57;;;3.97;;
11642;SDS011;5877;50.930;6.918;2023-05-07T22:14:03;4.97;;;4.47;;
11642;SDS011;5877;50.930;6.918;2023-05-07T22:18:55;6.55;;;5.95;;
11642;SDS011;5877;50.930;6.918;2023-05-07T22:23:47;4.32;;;3.92;;
11642;SDS011;5877;50.930;6.918;2023-05-07T22:28:40;4.20;;;3.70;;
11642;SDS011;5877;50.930;6.918;2023-05-07T22:33:33;6.30;;;5.70;;
11642;SDS011;5877;50.930;6.918;2023-05-07T22:38:25;7.95;;;7.15;;
11642;SDS011;5877;50.930;6.918;2023-05-07T22:43:19;9.23;;;8.43;;
11642;SDS011;5877;50.930;6.918;2023-05-07T22:48:11;9.60;;;8.80;;
11642;SDS011;5877;50.930;6.918;2023-05-07T22:53:03;11.18;;;10.18;;
11642;SDS011;5877;50.930;6.918;2023-05-07T22:57:56;12.60;;;9.80;;
11642;SDS011;5877;50.930;6.918;2023-05-07T23:02:48;10.77;;;9.80;;
11642;SDS011;5877;50.930;6.918;2023-05-07T23:07:40;11.07;;;10.07;;
11642;SDS011;5877;50.930;6.918;2023-05-07T23:12:34;8.15;;;7.35;;
11642;SDS011;5877;50.930;6.918;2023-05-07T23:17:26;7.55;;;6.68;;
11642;SDS011;5877;50.930;6.918;2023-05-07T23:22:18;7.83;;;7.03;;
11642;SDS011;5877;50.930;6.918;2023-05-07T23:27:10;5.80;;;5.30;;
11642;SDS011;5877;50.930;6.918;2023-05-07T23:32:04;6.18;;;5.55;;
11642;SDS011;5877;50.930;6.918;2023-05-07T23:36:57;7.30;;;6.60;;
11642;SDS011;5877;50.930;6.918;2023-05-07T23:41:49;5.63;;;5.13;;
11642;SDS011;5877;50.930;6.918;2023-05-07T23:46:42;5.67;;;5.00;;
11642;SDS011;5877;50.930;6.918;2023-05-07T23:51:36;6.45;;;5.78;;
11642;SDS011;5877;50.930;6.918;2023-05-07T23:56:29;7.70;;;6.93;;
